FABL

Bram Fischer International Airport

Bloemfontain, South Africa
METAR FABL 221700Z 30006KT CAVOK 17/07 Q1022 NOSIG
Observed Flight Rules
Apr-22 @ 17:00 UTC (an hour ago) Visual Flight Rules
Wind Visibility Clouds
300° at 6 knots 10,000+ meters
  • Clear skies
Temperatures Readings
Current 17°C / 63°F
Dewpoint 7°C / 45°F
Humidity 52%
Altimeter 30.18" Hg
Pressure 1022 hPa
Elevation 1348
METAR FABL 221700Z 30006KT CAVOK 17/07 Q1022 NOSIG
Observed Flight Rules
Apr-22 @ 17:00 UTC
(an hour ago)
VFR
Wind Visibility
300° at 6 knots 10,000+ meters
Clouds
  • Clear skies
Temperature Dewpoint
17°C / 63°F 7°C / 45°F
Humidity Altimeter Pressure
52% 30.18" Hg 1022 hPa